createdAt,value
2019-01-24T00:01:24.350Z,33.80
2019-01-24T00:03:52.349Z,35.07
2019-01-24T00:06:20.327Z,34.60
2019-01-24T00:08:47.964Z,34.13
2019-01-24T00:11:15.850Z,34.47
2019-01-24T00:13:43.495Z,36.67
2019-01-24T00:16:11.517Z,37.97
2019-01-24T00:18:39.451Z,37.83
2019-01-24T00:21:07.424Z,36.10
2019-01-24T00:23:35.388Z,36.07
2019-01-24T00:26:03.356Z,34.27
2019-01-24T00:28:31.330Z,34.33
2019-01-24T00:30:58.955Z,34.13
2019-01-24T00:33:26.961Z,36.53
2019-01-24T00:35:54.935Z,34.60
2019-01-24T00:38:22.905Z,34.97
2019-01-24T00:40:50.535Z,34.63
2019-01-24T00:43:18.429Z,34.50
2019-01-24T00:45:46.504Z,36.47
2019-01-24T00:48:14.153Z,35.77
2019-01-24T00:50:42.032Z,34.03
2019-01-24T00:53:10.002Z,33.43
2019-01-24T00:55:37.966Z,34.53
2019-01-24T00:58:05.603Z,35.80
2019-01-24T01:00:33.600Z,35.70
2019-01-24T01:03:01.249Z,34.57
2019-01-24T01:05:28.880Z,34.67
2019-01-24T01:07:56.796Z,34.00
2019-01-24T01:10:24.763Z,32.83
2019-01-24T01:12:52.401Z,34.07
2019-01-24T01:15:20.393Z,33.90
2019-01-24T01:17:48.034Z,34.87
2019-01-24T01:20:16.025Z,35.33
2019-01-24T01:22:43.999Z,35.67
2019-01-24T01:25:11.963Z,36.87
2019-01-24T01:27:39.942Z,35.90
2019-01-24T01:30:07.572Z,36.73
2019-01-24T01:32:35.208Z,36.97
2019-01-24T01:35:02.844Z,36.70
2019-01-24T01:37:30.802Z,36.17
2019-01-24T01:39:58.758Z,35.93
2019-01-24T01:42:26.730Z,35.27
2019-01-24T01:44:54.725Z,35.73
2019-01-24T01:47:22.359Z,33.00
2019-01-24T01:49:50.350Z,36.20
2019-01-24T01:52:18.303Z,35.83
2019-01-24T01:54:46.279Z,36.70
2019-01-24T01:57:14.238Z,37.90
2019-01-24T01:59:42.209Z,36.27
2019-01-24T02:02:10.181Z,34.07
2019-01-24T02:04:42.853Z,37.13
2019-01-24T02:07:07.778Z,36.40
2019-01-24T02:09:35.831Z,35.83
2019-01-24T02:12:03.802Z,35.20
2019-01-24T02:14:31.446Z,35.97
2019-01-24T02:16:59.438Z,33.67
2019-01-24T02:19:27.398Z,35.00
2019-01-24T02:21:55.035Z,33.53
2019-01-24T02:24:22.679Z,36.70
2019-01-24T02:26:50.592Z,35.67
2019-01-24T02:29:18.563Z,35.90
2019-01-24T02:31:46.530Z,37.07
2019-01-24T02:34:14.163Z,34.63
2019-01-24T02:36:42.064Z,34.97
2019-01-24T02:39:09.699Z,35.40
2019-01-24T02:41:37.334Z,33.90
2019-01-24T02:44:05.352Z,35.03
2019-01-24T02:46:32.989Z,33.30
2019-01-24T02:49:00.884Z,36.07
2019-01-24T02:51:28.858Z,34.37
2019-01-24T02:53:56.830Z,36.17
2019-01-24T02:56:24.477Z,35.07
2019-01-24T02:58:52.111Z,34.97
2019-01-24T03:01:19.750Z,36.27
2019-01-24T03:03:47.678Z,34.10
2019-01-24T03:06:15.318Z,35.97
2019-01-24T03:08:43.210Z,36.43
2019-01-24T03:11:10.851Z,36.47
2019-01-24T03:13:38.853Z,34.07
2019-01-24T03:16:06.494Z,36.30
2019-01-24T03:18:34.573Z,35.40
2019-01-24T03:21:02.549Z,36.17
2019-01-24T03:23:30.513Z,33.90
2019-01-24T03:25:58.503Z,34.53
2019-01-24T03:28:26.448Z,35.83
2019-01-24T03:30:54.098Z,36.30
2019-01-24T03:33:22.008Z,36.93
2019-01-24T03:35:49.957Z,36.97
2019-01-24T03:38:17.924Z,38.73
2019-01-24T03:40:45.891Z,35.67
2019-01-24T03:43:13.857Z,36.40
2019-01-24T03:45:41.836Z,36.97
2019-01-24T03:48:09.467Z,37.17
2019-01-24T03:50:37.460Z,35.20
2019-01-24T03:53:05.104Z,35.90
2019-01-24T03:55:33.094Z,34.50
2019-01-24T03:58:01.080Z,32.13
2019-01-24T04:00:28.720Z,35.07
2019-01-24T04:02:56.354Z,34.97
2019-01-24T04:05:24.356Z,35.40
2019-01-24T04:07:52.324Z,34.43
2019-01-24T04:10:20.297Z,37.57
2019-01-24T04:12:48.270Z,36.47
2019-01-24T04:15:15.915Z,33.87
2019-01-24T04:17:43.897Z,37.67
2019-01-24T04:20:11.868Z,36.70
2019-01-24T04:22:39.847Z,34.60
2019-01-24T04:25:07.827Z,34.23
2019-01-24T04:27:38.849Z,30.20
2019-01-24T04:30:06.487Z,29.87
2019-01-24T04:32:34.113Z,30.53
2019-01-24T04:35:01.753Z,30.00
2019-01-24T04:37:29.699Z,30.47
2019-01-24T04:39:57.672Z,30.13
2019-01-24T04:42:25.293Z,30.43
2019-01-24T04:44:52.919Z,29.33
2019-01-24T04:47:20.868Z,29.40
2019-01-24T04:49:48.500Z,27.80
2019-01-24T04:52:16.493Z,30.40
2019-01-24T04:54:44.466Z,29.90
2019-01-24T04:57:12.101Z,30.83
2019-01-24T04:59:39.998Z,27.43
2019-01-24T05:02:07.990Z,27.90
2019-01-24T05:04:35.619Z,30.17
2019-01-24T05:07:03.260Z,29.73
2019-01-24T05:09:31.159Z,29.07
2019-01-24T05:11:58.808Z,28.33
2019-01-24T05:14:26.439Z,27.77
2019-01-24T05:16:54.354Z,28.00
2019-01-24T05:19:22.316Z,31.13
2019-01-24T05:21:49.955Z,32.23
2019-01-24T05:24:17.852Z,30.07
2019-01-24T05:26:45.827Z,31.40
2019-01-24T05:29:13.791Z,31.63
2019-01-24T05:31:41.430Z,30.27
2019-01-24T05:34:09.415Z,30.30
2019-01-24T05:36:37.395Z,30.53
2019-01-24T05:39:05.561Z,31.00
2019-01-24T05:41:33.538Z,28.93
2019-01-24T05:44:01.164Z,30.40
2019-01-24T05:46:28.805Z,29.67
2019-01-24T05:48:56.446Z,31.47
2019-01-24T05:51:24.083Z,29.77
2019-01-24T05:53:51.711Z,31.27
2019-01-24T05:56:19.347Z,31.10
2019-01-24T05:58:47.001Z,31.50
2019-01-24T06:01:15.121Z,30.93
2019-01-24T06:03:42.745Z,30.90
2019-01-24T06:06:10.384Z,33.67
2019-01-24T06:08:38.018Z,32.30
2019-01-24T06:11:06.502Z,31.07
2019-01-24T06:13:34.134Z,32.77
2019-01-24T06:16:02.137Z,33.43
2019-01-24T06:18:30.104Z,34.47
2019-01-24T06:20:57.744Z,33.60
2019-01-24T06:23:25.656Z,31.53
2019-01-24T06:25:53.294Z,32.83
2019-01-24T06:28:21.284Z,31.07
2019-01-24T06:30:49.237Z,29.80
2019-01-24T06:33:17.203Z,30.83
2019-01-24T06:35:48.680Z,31.63
2019-01-24T06:38:14.583Z,30.77
2019-01-24T06:40:42.550Z,29.93
2019-01-24T06:43:10.188Z,30.20
2019-01-24T06:45:37.821Z,31.03
2019-01-24T06:48:05.465Z,32.30
2019-01-24T06:50:33.401Z,32.17
2019-01-24T06:53:01.373Z,29.97
2019-01-24T06:55:29.345Z,30.73
2019-01-24T06:57:57.309Z,30.80
2019-01-24T07:00:25.283Z,30.03
2019-01-24T07:02:53.265Z,30.27
2019-01-24T07:05:21.226Z,31.90
2019-01-24T07:07:48.867Z,31.20
2019-01-24T07:10:16.571Z,31.83
2019-01-24T07:12:44.214Z,33.80
2019-01-24T07:15:12.178Z,31.10
2019-01-24T07:17:40.146Z,32.00
2019-01-24T07:20:08.117Z,31.53
2019-01-24T07:22:36.087Z,31.10
2019-01-24T07:25:04.053Z,31.90
2019-01-24T07:27:31.692Z,31.77
2019-01-24T07:30:00.407Z,30.33
2019-01-24T07:32:28.040Z,32.20
2019-01-24T07:34:55.932Z,32.70
2019-01-24T07:37:23.911Z,31.30
2019-01-24T07:39:51.871Z,32.20
2019-01-24T07:42:19.840Z,33.10
2019-01-24T07:44:47.816Z,30.97
2019-01-24T07:47:15.781Z,32.53
2019-01-24T07:49:43.413Z,30.67
2019-01-24T07:52:11.052Z,31.70
2019-01-24T07:54:38.974Z,31.03
2019-01-24T07:57:06.615Z,34.53
2019-01-24T07:59:34.248Z,33.17
2019-01-24T08:02:01.894Z,30.57
2019-01-24T08:04:29.829Z,31.53
2019-01-24T08:06:57.795Z,32.27
2019-01-24T08:09:25.763Z,31.50
2019-01-24T08:11:53.736Z,31.50
2019-01-24T08:14:21.375Z,33.10
2019-01-24T08:16:49.373Z,32.33
2019-01-24T08:19:17.007Z,29.93
2019-01-24T08:21:45.002Z,30.93
2019-01-24T08:24:12.973Z,30.93
2019-01-24T08:26:40.941Z,31.37
2019-01-24T08:29:08.571Z,31.10
2019-01-24T08:31:36.466Z,31.00
2019-01-24T08:34:04.438Z,32.50
2019-01-24T08:36:32.414Z,32.00
2019-01-24T08:39:00.375Z,30.30
2019-01-24T08:41:28.350Z,30.67
2019-01-24T08:43:56.317Z,32.20
2019-01-24T08:46:23.957Z,31.03
2019-01-24T08:48:51.598Z,32.27
2019-01-24T08:51:19.510Z,29.77
2019-01-24T08:53:47.476Z,32.27
2019-01-24T08:56:15.450Z,33.20
2019-01-24T08:58:43.098Z,33.17
2019-01-24T09:01:11.085Z,34.33
2019-01-24T09:03:39.066Z,28.77
2019-01-24T09:06:07.020Z,31.17
2019-01-24T09:08:34.666Z,25.60
2019-01-24T09:11:02.669Z,30.53
2019-01-24T09:13:30.319Z,33.07
2019-01-24T09:15:58.285Z,26.97
2019-01-24T09:18:26.255Z,27.67
2019-01-24T09:20:54.234Z,29.87
2019-01-24T09:23:22.194Z,24.87
2019-01-24T09:25:49.824Z,25.30
2019-01-24T09:28:17.720Z,25.67
2019-01-24T09:30:45.690Z,24.27
2019-01-24T09:33:13.667Z,23.10
2019-01-24T09:35:41.299Z,22.97
2019-01-24T09:38:08.945Z,20.73
2019-01-24T09:40:36.853Z,21.70
2019-01-24T09:43:04.822Z,21.60
2019-01-24T09:45:32.794Z,20.63
2019-01-24T09:48:00.440Z,20.53
2019-01-24T09:50:28.069Z,18.93
2019-01-24T09:52:55.713Z,16.80
2019-01-24T09:55:23.662Z,17.40
2019-01-24T09:57:51.620Z,15.33
2019-01-24T10:00:19.595Z,14.93
2019-01-24T10:02:47.233Z,14.20
2019-01-24T10:05:14.863Z,15.10
2019-01-24T10:07:42.876Z,14.77
2019-01-24T10:10:10.511Z,16.70
2019-01-24T10:12:38.510Z,18.20
2019-01-24T10:15:06.483Z,17.73
2019-01-24T10:17:34.129Z,15.90
2019-01-24T10:20:02.116Z,15.40
2019-01-24T10:22:30.085Z,15.90
2019-01-24T10:24:57.728Z,16.93
2019-01-24T10:27:25.729Z,16.70
2019-01-24T10:29:53.690Z,16.30
2019-01-24T10:32:21.326Z,15.37
2019-01-24T10:34:49.052Z,16.00
2019-01-24T10:37:16.996Z,15.33
2019-01-24T10:39:44.634Z,16.43
2019-01-24T10:42:12.628Z,15.87
2019-01-24T10:44:40.684Z,15.97
2019-01-24T10:47:08.315Z,15.53
2019-01-24T10:49:35.961Z,15.67
2019-01-24T10:52:03.876Z,15.27
2019-01-24T10:54:31.515Z,16.03
2019-01-24T10:56:59.163Z,14.80
2019-01-24T10:59:27.081Z,16.10
2019-01-24T11:01:55.034Z,16.70
2019-01-24T11:04:22.675Z,15.77
2019-01-24T11:06:50.568Z,16.23
2019-01-24T11:09:18.532Z,15.37
2019-01-24T11:11:46.542Z,15.80
2019-01-24T11:14:14.180Z,15.90
2019-01-24T11:16:42.137Z,16.00
2019-01-24T11:19:10.104Z,17.47
2019-01-24T11:21:38.085Z,17.30
2019-01-24T11:24:06.044Z,17.47
2019-01-24T11:26:33.692Z,17.30
2019-01-24T11:29:01.679Z,16.73
2019-01-24T11:31:29.674Z,15.13
2019-01-24T11:33:57.613Z,13.40
2019-01-24T11:36:25.585Z,16.13
2019-01-24T11:38:53.230Z,15.80
2019-01-24T11:41:21.113Z,17.07
2019-01-24T11:43:48.752Z,17.40
2019-01-24T11:46:16.385Z,15.53
2019-01-24T11:48:44.317Z,17.40
2019-01-24T11:51:12.279Z,16.43
2019-01-24T11:53:40.245Z,16.93
2019-01-24T11:56:08.185Z,14.93
2019-01-24T11:58:36.183Z,16.53
2019-01-24T12:01:03.823Z,14.93
2019-01-24T12:03:31.818Z,15.20
2019-01-24T12:05:59.794Z,17.27
2019-01-24T12:08:27.772Z,15.83
2019-01-24T12:10:55.729Z,16.53
2019-01-24T12:13:23.692Z,17.67
2019-01-24T12:15:51.978Z,16.50
2019-01-24T12:18:19.940Z,16.73
2019-01-24T12:20:47.579Z,16.67
2019-01-24T12:23:15.213Z,17.40
2019-01-24T12:25:42.856Z,17.77
2019-01-24T12:28:10.795Z,16.83
2019-01-24T12:30:38.450Z,17.90
2019-01-24T12:33:11.922Z,17.03
2019-01-24T12:35:39.559Z,17.53
2019-01-24T12:38:07.195Z,15.97
2019-01-24T12:40:35.154Z,15.93
2019-01-24T12:43:02.778Z,15.43
2019-01-24T12:45:30.782Z,15.73
2019-01-24T12:47:58.753Z,16.70
2019-01-24T12:50:26.722Z,15.37
2019-01-24T12:55:58.091Z,12.80
2019-01-24T12:58:25.708Z,14.50
2019-01-24T13:00:53.343Z,14.87
2019-01-24T13:03:21.281Z,16.30
2019-01-24T13:05:48.922Z,14.47
2019-01-24T13:08:16.555Z,16.73
2019-01-24T13:10:44.474Z,14.37
2019-01-24T13:13:12.443Z,14.63
2019-01-24T13:15:40.073Z,12.77
2019-01-24T13:18:07.986Z,14.63
2019-01-24T13:20:35.679Z,15.17
2019-01-24T13:23:03.312Z,14.90
2019-01-24T13:25:30.962Z,16.10
2019-01-24T13:27:58.585Z,16.97
2019-01-24T13:30:26.218Z,18.13
2019-01-24T13:32:54.180Z,15.43
2019-01-24T13:35:22.122Z,15.40
2019-01-24T13:37:50.090Z,17.40
2019-01-24T13:40:17.725Z,15.53
2019-01-24T13:42:45.626Z,15.97
2019-01-24T13:45:13.587Z,15.93
2019-01-24T13:47:41.213Z,15.67
2019-01-24T13:50:09.221Z,17.00
2019-01-24T13:52:36.938Z,16.03
2019-01-24T13:55:04.855Z,15.30
2019-01-24T13:57:32.478Z,15.90
2019-01-24T14:00:00.384Z,15.57
2019-01-24T14:02:28.360Z,14.50
2019-01-24T14:04:55.993Z,16.83
2019-01-24T14:07:23.895Z,15.67
2019-01-24T14:09:51.516Z,17.67
2019-01-24T14:12:19.532Z,15.70
2019-01-24T14:14:47.479Z,16.57
2019-01-24T14:17:15.113Z,15.97
2019-01-24T14:19:42.755Z,16.60
2019-01-24T14:22:10.709Z,16.73
2019-01-24T14:24:38.666Z,16.73
2019-01-24T14:27:06.609Z,17.07
2019-01-24T14:29:34.582Z,16.57
2019-01-24T14:32:02.570Z,16.30
2019-01-24T14:34:30.516Z,15.70
2019-01-24T14:36:58.504Z,17.17
2019-01-24T14:39:26.461Z,17.00
2019-01-24T14:41:54.096Z,17.17
2019-01-24T14:44:22.008Z,16.67
2019-01-24T14:46:49.959Z,17.23
2019-01-24T14:49:17.677Z,17.17
2019-01-24T14:51:45.591Z,15.80
2019-01-24T14:54:13.569Z,16.50
2019-01-24T14:56:41.529Z,14.87
2019-01-24T14:59:09.500Z,16.77
2019-01-24T15:01:37.133Z,15.70
2019-01-24T15:04:05.044Z,12.90
2019-01-24T15:06:32.679Z,16.60
2019-01-24T15:09:00.556Z,16.37
2019-01-24T15:11:28.529Z,16.10
2019-01-24T15:13:56.157Z,16.70
2019-01-24T15:16:23.792Z,15.70
2019-01-24T15:18:51.431Z,18.47
2019-01-24T15:21:19.398Z,17.73
2019-01-24T15:23:47.030Z,18.23
2019-01-24T15:26:14.667Z,16.10
2019-01-24T15:28:42.593Z,16.90
2019-01-24T15:31:10.229Z,16.57
2019-01-24T15:33:37.860Z,16.60
2019-01-24T15:36:05.504Z,17.63
2019-01-24T15:38:33.425Z,15.47
2019-01-24T15:41:01.064Z,16.20
2019-01-24T15:43:28.960Z,16.10
2019-01-24T15:45:56.941Z,17.97
2019-01-24T15:48:24.562Z,15.80
2019-01-24T15:50:52.459Z,16.50
2019-01-24T15:53:20.431Z,17.00
2019-01-24T15:55:48.396Z,12.80
2019-01-24T15:58:16.369Z,15.53
2019-01-24T16:00:44.359Z,16.83
2019-01-24T16:03:12.307Z,17.57
2019-01-24T16:05:40.277Z,17.07
2019-01-24T16:08:08.242Z,16.00
2019-01-24T16:10:36.215Z,16.00
2019-01-24T16:13:04.200Z,17.30
2019-01-24T16:15:31.846Z,16.93
2019-01-24T16:17:59.820Z,17.03
2019-01-24T16:20:27.461Z,16.37
2019-01-24T16:22:55.448Z,15.23
2019-01-24T16:25:23.416Z,16.57
2019-01-24T16:27:51.041Z,16.60
2019-01-24T16:30:18.680Z,16.03
2019-01-24T16:32:46.607Z,15.23
2019-01-24T16:35:14.585Z,17.23
2019-01-24T16:37:42.550Z,15.57
2019-01-24T16:40:10.527Z,16.33
2019-01-24T16:42:38.155Z,13.70
2019-01-24T16:45:05.852Z,16.07
2019-01-24T16:47:33.481Z,15.17
2019-01-24T16:50:01.121Z,15.67
2019-01-24T16:52:28.738Z,17.23
2019-01-24T16:54:56.369Z,17.43
2019-01-24T16:57:24.073Z,16.43
2019-01-24T16:59:52.024Z,17.13
2019-01-24T17:02:19.990Z,15.90
2019-01-24T17:04:47.964Z,17.93
2019-01-24T17:07:15.937Z,16.10
2019-01-24T17:09:43.561Z,16.87
2019-01-24T17:12:11.460Z,17.50
2019-01-24T17:14:39.097Z,15.20
2019-01-24T17:17:07.097Z,16.10
2019-01-24T17:19:34.722Z,16.60
2019-01-24T17:22:02.622Z,16.40
2019-01-24T17:24:30.251Z,15.80
2019-01-24T17:26:58.166Z,16.40
2019-01-24T17:29:25.791Z,16.17
2019-01-24T17:31:53.428Z,17.03
2019-01-24T17:34:21.343Z,16.97
2019-01-24T17:36:48.989Z,18.57
2019-01-24T17:39:16.622Z,17.17
2019-01-24T17:41:44.556Z,17.53
2019-01-24T17:44:12.514Z,15.93
2019-01-24T17:46:40.474Z,14.87
2019-01-24T17:49:08.110Z,16.53
2019-01-24T17:51:36.007Z,17.50
2019-01-24T17:54:03.976Z,17.70
2019-01-24T17:56:31.631Z,16.70
2019-01-24T17:58:59.519Z,18.33
2019-01-24T18:01:27.156Z,17.07
2019-01-24T18:03:55.139Z,17.60
2019-01-24T18:06:22.855Z,16.13
2019-01-24T18:08:50.768Z,16.67
2019-01-24T18:11:18.738Z,18.03
2019-01-24T18:13:46.706Z,16.93
2019-01-24T18:16:14.681Z,16.57
2019-01-24T18:18:42.316Z,17.60
2019-01-24T18:21:09.950Z,17.23
2019-01-24T18:23:37.869Z,17.27
2019-01-24T18:26:05.503Z,17.07
2019-01-24T18:28:33.399Z,17.33
2019-01-24T18:31:01.020Z,16.97
2019-01-24T18:33:28.656Z,17.50
2019-01-24T18:35:56.589Z,17.30
2019-01-24T18:38:24.284Z,18.17
2019-01-24T18:40:51.919Z,18.47
2019-01-24T18:43:19.887Z,17.70
2019-01-24T18:45:47.850Z,16.37
2019-01-24T18:48:15.820Z,18.53
2019-01-24T18:50:43.790Z,19.23
2019-01-24T18:53:11.434Z,19.57
2019-01-24T18:55:39.048Z,18.73
2019-01-24T18:58:06.984Z,19.47
2019-01-24T19:00:36.988Z,18.83
2019-01-24T19:03:04.972Z,20.53
2019-01-24T19:05:32.604Z,17.83
2019-01-24T19:08:00.603Z,21.23
2019-01-24T19:10:28.229Z,19.67
2019-01-24T19:12:56.136Z,19.13
2019-01-24T19:15:24.124Z,19.17
2019-01-24T19:17:52.072Z,18.30
2019-01-24T19:20:20.408Z,19.83
2019-01-24T19:22:48.318Z,19.83
2019-01-24T19:25:15.952Z,20.03
2019-01-24T19:27:43.850Z,18.40
2019-01-24T19:30:11.821Z,19.33
2019-01-24T19:32:39.787Z,19.87
2019-01-24T19:35:07.761Z,20.90
2019-01-24T19:37:35.726Z,19.97
2019-01-24T19:40:03.368Z,20.60
2019-01-24T19:42:31.354Z,18.47
2019-01-24T19:44:58.994Z,18.20
2019-01-24T19:47:26.894Z,18.73
2019-01-24T19:49:54.857Z,19.90
2019-01-24T19:52:22.505Z,19.93
2019-01-24T19:54:50.141Z,20.83
2019-01-24T19:57:17.778Z,19.40
2019-01-24T19:59:45.717Z,19.57
2019-01-24T20:02:13.678Z,19.23
2019-01-24T20:04:41.654Z,20.23
2019-01-24T20:07:09.279Z,19.13
2019-01-24T20:09:37.284Z,19.33
2019-01-24T20:12:05.253Z,19.53
2019-01-24T20:14:32.895Z,20.20
2019-01-24T20:17:00.782Z,20.07
2019-01-24T20:19:28.750Z,20.70
2019-01-24T20:21:56.386Z,22.30
2019-01-24T20:24:24.031Z,20.30
2019-01-24T20:26:51.946Z,19.57
2019-01-24T20:29:19.586Z,19.80
2019-01-24T20:31:47.468Z,21.03
2019-01-24T20:34:15.448Z,19.03
2019-01-24T20:36:43.075Z,20.00
2019-01-24T20:39:11.079Z,19.90
2019-01-24T20:41:39.046Z,19.37
2019-01-24T20:44:06.679Z,20.17
2019-01-24T20:46:34.575Z,20.60
2019-01-24T20:49:02.223Z,20.27
2019-01-24T20:51:30.111Z,20.63
2019-01-24T20:53:58.091Z,20.33
2019-01-24T20:56:25.721Z,20.33
2019-01-24T20:58:53.350Z,19.33
2019-01-24T21:01:21.272Z,19.20
2019-01-24T21:03:55.093Z,18.53
2019-01-24T21:06:18.543Z,22.40
2019-01-24T21:08:46.178Z,18.73
2019-01-24T21:11:14.109Z,20.50
2019-01-24T21:13:41.697Z,20.33
2019-01-24T21:16:09.594Z,19.37
2019-01-24T21:18:37.571Z,18.80
2019-01-24T21:21:05.549Z,20.00
2019-01-24T21:23:33.174Z,21.57
2019-01-24T21:26:01.077Z,20.10
2019-01-24T21:28:28.769Z,19.63
2019-01-24T21:30:56.705Z,19.87
2019-01-24T21:33:24.669Z,18.97
2019-01-24T21:35:52.295Z,19.87
2019-01-24T21:38:20.200Z,19.13
2019-01-24T21:40:48.167Z,20.00
2019-01-24T21:43:15.831Z,19.43
2019-01-24T21:45:43.471Z,19.90
2019-01-24T21:48:11.103Z,18.40
2019-01-24T21:50:39.047Z,18.77
2019-01-24T21:53:06.684Z,19.80
2019-01-24T21:55:34.309Z,19.17
2019-01-24T21:58:01.959Z,20.50
2019-01-24T22:00:29.875Z,19.93
2019-01-24T22:02:57.843Z,20.13
2019-01-24T22:05:25.844Z,19.07
2019-01-24T22:07:53.517Z,19.77
2019-01-24T22:10:21.152Z,20.70
2019-01-24T22:12:49.108Z,17.77
2019-01-24T22:15:17.076Z,18.03
2019-01-24T22:17:45.061Z,19.57
2019-01-24T22:20:13.026Z,19.87
2019-01-24T22:22:41.002Z,20.10
2019-01-24T22:25:08.960Z,18.80
2019-01-24T22:27:38.382Z,19.50
2019-01-24T22:30:06.228Z,21.17
2019-01-24T22:32:33.849Z,19.77
2019-01-24T22:35:01.755Z,19.47
2019-01-24T22:37:29.727Z,20.57
2019-01-24T22:39:57.697Z,21.60
2019-01-24T22:42:25.406Z,19.80
2019-01-24T22:44:53.337Z,19.40
2019-01-24T22:47:20.955Z,20.40
2019-01-24T22:49:48.856Z,20.13
2019-01-24T22:52:16.930Z,19.60
2019-01-24T22:54:44.572Z,20.27
2019-01-24T22:57:12.472Z,19.33
2019-01-24T22:59:40.426Z,20.47
2019-01-24T23:02:08.057Z,19.37
2019-01-24T23:04:35.949Z,20.23
2019-01-24T23:07:03.922Z,21.50
2019-01-24T23:09:31.902Z,20.73
2019-01-24T23:11:59.881Z,19.87
2019-01-24T23:14:27.503Z,19.37
2019-01-24T23:16:55.495Z,21.80
2019-01-24T23:19:23.131Z,18.80
2019-01-24T23:21:51.031Z,19.87
2019-01-24T23:24:18.673Z,19.93
2019-01-24T23:26:46.661Z,19.37
2019-01-24T23:29:14.632Z,20.30
2019-01-24T23:31:42.597Z,21.00
2019-01-24T23:34:10.241Z,19.23
2019-01-24T23:36:38.138Z,21.50
2019-01-24T23:39:06.094Z,19.80
2019-01-24T23:41:34.075Z,20.47
2019-01-24T23:44:01.705Z,22.07
2019-01-24T23:46:29.613Z,20.03
2019-01-24T23:48:57.255Z,19.83
2019-01-24T23:51:24.916Z,19.80
2019-01-24T23:53:52.801Z,20.47
2019-01-24T23:56:20.426Z,21.20
2019-01-24T23:58:48.064Z,21.27
